Chesterfield, Michigan
Current Conditions -  °F | °C
As of 12:55 PM on Tuesday 21 Oct 2014 (Local Time) from KMTC Reporting Station
Overcast Overcast  
Wind Chill: 39°   Ceiling: 1700
Heat Index: 46°   Visibility: 12mi
Dew Point: 42°   Wind: 17mph
Humidity: 86%   Direction: 340°NNW
Pressure: 30.01"   Gusts: 24mph
Location:  42.6875°N, 82.8325°W
Report Text: KMTC 211655Z 34015G21KT 12SM BKN017 OVC022 08/06 A3001 RMK SLP171 T00780056
Loading
Personal Weather Stations






























Interactive Weather Map
Tropical Storm Tracking
New forecast layout! Learn more

10-Day Weather Forecast

Advertisements
Track Severe Weather on mobile